Time;durP1;ratioP1;P1;durP2;ratioP2;P2;SDS_P1;SDS_P2;PMS_P1;PMS_P2;Temp;Humidity;BMP_temperature;BMP_pressure;BME280_temperature;BME280_humidity;BME280_pressure;Samples;Min_cycle;Max_cycle;Signal;HPM_P1;HPM_P2
2023/01/13 00:00:37;;;;;;;10.60;5.90;;;;;;;6.60;78.53;100087.13;108665;1254;36375;-75
2023/01/13 00:03:24;;;;;;;10.50;6.50;;;;;;;6.60;78.32;100087.98;108674;1253;37126;-75
2023/01/13 00:05:55;;;;;;;12.00;7.10;;;;;;;6.60;78.37;100090.58;108647;1265;37242;-77
2023/01/13 00:08:26;;;;;;;11.20;6.20;;;;;;;6.62;78.42;100085.86;108663;1257;37286;-76
2023/01/13 00:10:58;;;;;;;12.90;7.20;;;;;;;6.63;78.39;100087.70;108682;1257;37953;-76
2023/01/13 00:13:31;;;;;;;11.70;6.50;;;;;;;6.62;78.11;100083.08;108653;1257;37227;-75
2023/01/13 00:16:05;;;;;;;11.60;6.00;;;;;;;6.61;78.23;100080.32;108680;1270;37091;-76
2023/01/13 00:18:36;;;;;;;11.20;6.60;;;;;;;6.64;78.33;100079.20;108674;1257;36264;-77
2023/01/13 00:21:10;;;;;;;10.90;6.60;;;;;;;6.65;78.39;100079.69;108689;1269;37301;-76
2023/01/13 00:23:41;;;;;;;13.20;6.90;;;;;;;6.66;78.32;100082.45;108676;1258;37246;-77
2023/01/13 00:26:15;;;;;;;11.20;6.40;;;;;;;6.65;78.55;100082.83;108664;1276;37046;-76
2023/01/13 00:28:47;;;;;;;15.30;7.10;;;;;;;6.64;78.59;100084.23;108726;1253;37041;-76
2023/01/13 00:31:19;;;;;;;17.00;6.20;;;;;;;6.61;78.57;100079.63;108691;1276;37152;-77
2023/01/13 00:33:51;;;;;;;14.10;7.60;;;;;;;6.61;78.62;100082.75;108699;1257;37884;-76
2023/01/13 00:36:22;;;;;;;13.60;7.30;;;;;;;6.62;78.69;100078.92;108630;1254;36781;-75
2023/01/13 00:38:54;;;;;;;14.80;7.10;;;;;;;6.63;79.04;100075.77;108526;1259;37459;-75
2023/01/13 00:41:27;;;;;;;13.90;6.50;;;;;;;6.63;79.29;100076.61;108651;1259;37314;-75
2023/01/13 00:43:59;;;;;;;12.40;6.30;;;;;;;6.63;79.39;100070.56;108535;1258;36314;-75
2023/01/13 00:46:30;;;;;;;14.20;7.00;;;;;;;6.66;79.53;100065.12;108648;1257;37007;-77
2023/01/13 00:49:01;;;;;;;12.70;6.90;;;;;;;6.69;79.87;100066.58;108637;1253;37179;-76
2023/01/13 00:51:32;;;;;;;14.10;7.00;;;;;;;6.68;79.78;100069.22;108652;1259;36334;-77
2023/01/13 00:54:03;;;;;;;14.40;7.10;;;;;;;6.65;79.97;100070.84;108468;1257;37291;-76
2023/01/13 00:56:34;;;;;;;10.50;6.00;;;;;;;6.64;80.08;100070.19;108652;1254;36342;-76
2023/01/13 00:59:06;;;;;;;14.70;6.70;;;;;;;6.64;80.15;100070.70;108494;1256;37092;-77
2023/01/13 01:01:37;;;;;;;12.60;7.10;;;;;;;6.63;80.43;100073.88;108641;1257;38277;-75
2023/01/13 01:04:08;;;;;;;11.40;6.70;;;;;;;6.63;80.68;100071.77;108499;1259;37116;-75
2023/01/13 01:06:39;;;;;;;13.60;6.70;;;;;;;6.61;81.09;100069.58;108598;1265;37150;-76
2023/01/13 01:09:13;;;;;;;10.20;6.30;;;;;;;6.59;81.58;100065.13;108585;1277;37159;-73
2023/01/13 01:11:44;;;;;;;13.40;6.70;;;;;;;6.57;81.75;100062.08;108685;1254;36962;-75
2023/01/13 01:14:16;;;;;;;11.60;6.80;;;;;;;6.56;81.96;100054.82;108473;1276;37101;-75
2023/01/13 01:16:47;;;;;;;11.70;6.70;;;;;;;6.54;82.04;100050.87;108524;1253;36788;-75
2023/01/13 01:19:18;;;;;;;12.00;6.90;;;;;;;6.54;82.28;100046.73;108708;1269;36988;-75
2023/01/13 01:21:50;;;;;;;12.80;6.70;;;;;;;6.53;82.34;100044.14;108725;1253;36358;-76
2023/01/13 01:24:21;;;;;;;12.30;6.30;;;;;;;6.51;82.39;100042.45;108670;1257;36933;-76
2023/01/13 01:26:52;;;;;;;13.80;7.20;;;;;;;6.52;82.46;100038.98;108659;1276;38592;-76
2023/01/13 01:29:23;;;;;;;10.40;6.50;;;;;;;6.52;82.48;100038.27;108663;1267;37056;-77
2023/01/13 01:31:54;;;;;;;14.50;6.90;;;;;;;6.53;82.67;100036.52;108581;1259;38341;-76
2023/01/13 01:34:25;;;;;;;12.60;6.60;;;;;;;6.50;82.46;100035.58;108498;1270;37064;-77
2023/01/13 01:36:56;;;;;;;11.90;7.10;;;;;;;6.44;82.38;100033.30;108565;1259;37966;-76
2023/01/13 01:39:27;;;;;;;13.70;6.50;;;;;;;6.40;82.33;100034.61;108582;1255;37924;-76
2023/01/13 01:44:59;;;;;;;;;;;;;;;6.42;82.69;100022.59;108695;1257;38328;-76
2023/01/13 01:47:30;;;;;;;14.30;7.00;;;;;;;6.39;83.04;100019.38;108645;1269;37111;-75
2023/01/13 01:50:02;;;;;;;11.60;5.80;;;;;;;6.38;82.91;100014.58;108525;1259;36416;-75
2023/01/13 01:52:35;;;;;;;12.20;7.10;;;;;;;6.35;83.07;100010.48;108498;1262;36343;-75
2023/01/13 01:55:09;;;;;;;13.20;6.50;;;;;;;6.35;83.14;100005.29;108687;1268;36789;-76
2023/01/13 01:57:43;;;;;;;10.30;5.90;;;;;;;6.36;83.21;100004.74;108516;1273;37462;-76
2023/01/13 02:00:16;;;;;;;12.60;7.00;;;;;;;6.39;83.15;100002.58;108709;1257;37020;-77
2023/01/13 02:02:49;;;;;;;13.70;7.00;;;;;;;6.39;83.23;100000.85;108562;1257;37183;-77
2023/01/13 02:05:21;;;;;;;11.40;6.60;;;;;;;6.39;83.27;100000.16;108622;1263;37012;-75
2023/01/13 02:07:54;;;;;;;11.00;6.00;;;;;;;6.40;83.28;99998.92;108660;1277;37276;-76
2023/01/13 02:10:27;;;;;;;15.10;7.10;;;;;;;6.40;83.11;99996.84;107932;1256;910483;-75
2023/01/13 02:12:59;;;;;;;14.00;6.20;;;;;;;6.40;83.12;99991.98;108646;1253;37065;-76
2023/01/13 02:15:35;;;;;;;10.70;6.40;;;;;;;6.40;83.20;99992.32;108565;1270;36990;-76
2023/01/13 02:18:31;;;;;;;12.70;6.30;;;;;;;6.40;83.07;99986.44;108528;1255;37058;-76
2023/01/13 02:21:39;;;;;;;10.00;5.60;;;;;;;6.38;83.11;99988.77;108623;1265;37000;-75
2023/01/13 02:24:55;;;;;;;13.40;6.80;;;;;;;6.38;83.22;99987.38;108595;1277;37167;-76
2023/01/13 02:27:47;;;;;;;9.30;5.90;;;;;;;6.38;83.25;99987.37;108577;1272;37099;-76
2023/01/13 02:33:22;;;;;;;10.80;5.90;;;;;;;6.40;83.24;99984.55;108594;1264;36866;-76
2023/01/13 02:35:57;;;;;;;13.40;6.50;;;;;;;6.40;83.41;99979.52;108451;1260;39016;-77
2023/01/13 02:38:31;;;;;;;10.00;5.40;;;;;;;6.41;83.57;99976.55;108605;1254;36984;-76
2023/01/13 02:44:07;;;;;;;10.80;6.30;;;;;;;6.42;83.77;99972.17;108596;1259;37031;-76
2023/01/13 02:46:46;;;;;;;;;;;;;;;6.44;83.86;99970.22;108519;1253;37211;-76
2023/01/13 02:49:28;;;;;;;10.50;5.50;;;;;;;6.40;84.20;99970.67;108629;1259;37272;-76
2023/01/13 02:52:07;;;;;;;11.20;5.30;;;;;;;6.39;84.05;99970.19;108471;1275;37677;-76
2023/01/13 02:54:38;;;;;;;10.10;5.60;;;;;;;6.38;83.99;99971.08;108606;1259;36737;-75
2023/01/13 02:57:09;;;;;;;11.10;5.70;;;;;;;6.38;84.18;99970.73;108472;1264;36939;-75
2023/01/13 02:59:44;;;;;;;10.10;5.40;;;;;;;6.40;84.31;99967.23;108410;1263;37062;-76
2023/01/13 03:02:18;;;;;;;8.90;5.20;;;;;;;6.43;84.69;99964.71;108565;1259;36183;-76
2023/01/13 03:04:56;;;;;;;8.30;5.40;;;;;;;6.43;84.65;99959.18;108608;1254;37728;-76
2023/01/13 03:07:59;;;;;;;9.00;5.50;;;;;;;6.41;84.71;99959.55;108588;1253;37074;-75
2023/01/13 03:10:48;;;;;;;8.00;5.10;;;;;;;6.41;84.85;99957.66;108431;1277;36460;-76
2023/01/13 03:13:55;;;;;;;7.40;5.10;;;;;;;6.43;85.17;99954.13;108442;1268;37008;-76
2023/01/13 03:16:32;;;;;;;10.80;5.40;;;;;;;6.45;85.15;99949.39;108625;1258;36936;-75
2023/01/13 03:19:16;;;;;;;12.40;5.80;;;;;;;6.47;85.16;99949.35;108658;1272;37083;-76
2023/01/13 03:21:53;;;;;;;8.50;5.30;;;;;;;6.44;85.05;99950.98;108515;1258;174819;-77
2023/01/13 03:24:29;;;;;;;9.30;4.90;;;;;;;6.45;85.02;99948.20;108505;1265;37194;-77
2023/01/13 03:27:04;;;;;;;9.50;5.50;;;;;;;6.46;85.18;99950.08;108364;1253;172755;-77
2023/01/13 03:29:38;;;;;;;10.70;6.00;;;;;;;6.44;85.24;99950.81;108502;1262;38239;-76
2023/01/13 03:32:11;;;;;;;9.10;5.20;;;;;;;6.44;85.51;99949.08;108596;1254;37106;-76
2023/01/13 03:34:55;;;;;;;8.40;5.10;;;;;;;6.45;85.64;99947.50;108651;1254;37081;-76
2023/01/13 03:37:35;;;;;;;9.60;5.20;;;;;;;6.45;85.54;99947.50;108597;1255;37101;-76
2023/01/13 03:40:15;;;;;;;11.30;5.50;;;;;;;6.48;85.78;99944.31;108697;1259;36920;-76
2023/01/13 03:45:36;;;;;;;11.00;5.70;;;;;;;6.49;86.06;99942.89;108629;1253;37228;-75
2023/01/13 03:48:17;;;;;;;8.90;5.00;;;;;;;6.49;85.93;99941.68;108452;1262;36260;-76
2023/01/13 03:50:53;;;;;;;9.90;5.70;;;;;;;6.47;86.17;99939.48;108643;1259;36949;-76
2023/01/13 03:53:29;;;;;;;9.40;4.60;;;;;;;6.46;86.19;99931.20;108582;1259;37000;-76
2023/01/13 03:56:06;;;;;;;12.80;5.30;;;;;;;6.49;86.32;99934.41;108497;1262;36151;-76
2023/01/13 03:58:40;;;;;;;12.70;5.40;;;;;;;6.50;86.51;99931.09;108557;1260;36642;-75
2023/01/13 04:01:18;;;;;;;11.80;5.70;;;;;;;6.47;86.46;99934.95;108471;1262;36634;-75
2023/01/13 04:03:53;;;;;;;9.30;5.00;;;;;;;6.46;86.39;99937.58;108593;1259;36955;-76
2023/01/13 04:06:31;;;;;;;10.00;5.50;;;;;;;6.45;86.69;99936.58;108591;1277;36555;-76
2023/01/13 04:09:08;;;;;;;8.10;4.90;;;;;;;6.46;86.89;99932.76;108649;1270;36582;-76
2023/01/13 04:11:43;;;;;;;10.30;5.30;;;;;;;6.48;87.05;99934.08;108603;1253;37736;-77
2023/01/13 04:14:15;;;;;;;9.10;4.90;;;;;;;6.51;87.22;99932.08;108614;1258;38251;-76
2023/01/13 04:16:49;;;;;;;9.70;5.30;;;;;;;6.52;87.37;99931.70;108590;1254;36990;-76
2023/01/13 04:19:20;;;;;;;8.40;5.10;;;;;;;6.52;87.23;99931.38;108378;1277;174565;-76
2023/01/13 04:21:52;;;;;;;10.60;5.00;;;;;;;6.54;87.37;99930.61;108607;1259;37134;-76
2023/01/13 04:24:26;;;;;;;9.70;4.70;;;;;;;6.55;87.17;99927.98;108639;1253;37030;-76
2023/01/13 04:26:57;;;;;;;8.30;4.80;;;;;;;6.55;87.23;99930.92;108605;1266;37258;-77
2023/01/13 04:29:34;;;;;;;10.00;5.50;;;;;;;6.55;87.48;99926.60;108509;1267;37008;-76
2023/01/13 04:32:08;;;;;;;11.10;5.20;;;;;;;6.55;87.41;99925.21;108592;1277;37472;-76
2023/01/13 04:34:40;;;;;;;6.70;4.30;;;;;;;6.53;87.58;99921.64;108628;1259;37193;-75
2023/01/13 04:37:17;;;;;;;8.80;5.30;;;;;;;6.51;87.55;99920.83;108584;1258;38284;-77
2023/01/13 04:39:51;;;;;;;9.60;5.20;;;;;;;6.51;87.61;99918.23;108622;1272;37147;-77
2023/01/13 04:42:23;;;;;;;9.30;5.20;;;;;;;6.49;87.70;99920.02;108608;1259;37090;-76
2023/01/13 04:44:55;;;;;;;9.50;5.10;;;;;;;6.47;87.90;99919.55;108653;1259;36522;-76
2023/01/13 04:47:27;;;;;;;8.90;5.20;;;;;;;6.47;87.85;99920.77;108643;1263;38597;-76
2023/01/13 04:49:59;;;;;;;9.60;4.70;;;;;;;6.46;88.09;99918.52;108603;1277;37270;-76
2023/01/13 04:52:30;;;;;;;7.20;4.50;;;;;;;6.49;88.03;99915.69;108606;1275;37562;-76
2023/01/13 04:55:03;;;;;;;7.10;4.50;;;;;;;6.48;87.99;99917.77;108635;1274;38133;-75
2023/01/13 04:57:36;;;;;;;8.30;5.20;;;;;;;6.49;88.05;99917.05;108573;1259;37111;-75
2023/01/13 05:00:12;;;;;;;8.90;4.80;;;;;;;6.50;88.13;99913.21;108430;1265;37074;-75
2023/01/13 05:02:43;;;;;;;9.00;4.60;;;;;;;6.50;88.39;99914.63;108610;1255;37075;-76
2023/01/13 05:05:13;;;;;;;7.50;3.90;;;;;;;6.51;88.44;99917.54;108628;1257;37549;-76
2023/01/13 05:07:44;;;;;;;8.00;4.50;;;;;;;6.52;88.31;99917.67;108637;1258;37023;-76
2023/01/13 05:10:17;;;;;;;8.30;4.70;;;;;;;6.56;88.46;99918.61;108616;1259;37972;-76
2023/01/13 05:18:47;;;;;;;7.80;4.80;;;;;;;6.49;88.48;99910.65;108589;1276;36644;-76
2023/01/13 05:27:03;;;;;;;6.80;4.70;;;;;;;6.51;88.58;99916.47;108379;1277;36131;-76
2023/01/13 05:29:34;;;;;;;8.90;5.20;;;;;;;6.48;88.63;99915.88;108631;1259;36405;-76
2023/01/13 05:32:07;;;;;;;9.70;5.30;;;;;;;6.49;88.77;99917.41;108604;1277;37106;-76
2023/01/13 05:34:40;;;;;;;10.20;4.40;;;;;;;6.48;88.93;99914.66;108703;1253;37409;-76
2023/01/13 05:37:12;;;;;;;8.80;4.50;;;;;;;6.44;88.98;99913.02;108593;1258;38745;-76
2023/01/13 05:45:34;;;;;;;9.70;4.80;;;;;;;6.45;89.19;99913.70;108598;1277;36697;-76
2023/01/13 05:48:06;;;;;;;8.30;4.20;;;;;;;6.45;89.24;99914.57;108609;1254;37629;-77
2023/01/13 05:50:40;;;;;;;7.90;4.30;;;;;;;6.47;89.29;99917.83;108640;1268;37295;-75
2023/01/13 05:53:11;;;;;;;7.60;4.80;;;;;;;6.48;89.36;99925.25;108500;1256;37307;-75
2023/01/13 05:55:43;;;;;;;7.30;4.60;;;;;;;6.49;89.33;99925.89;108453;1253;36365;-76
2023/01/13 05:58:15;;;;;;;10.00;5.30;;;;;;;6.51;89.50;99933.13;108640;1257;37051;-75
2023/01/13 06:00:46;;;;;;;8.00;4.40;;;;;;;6.50;89.75;99928.82;108593;1259;36141;-75
2023/01/13 06:03:19;;;;;;;7.60;4.70;;;;;;;6.48;89.67;99928.71;108659;1264;37138;-75
2023/01/13 06:05:57;;;;;;;9.00;4.70;;;;;;;6.47;89.77;99928.02;108445;1266;36943;-75
2023/01/13 06:08:31;;;;;;;6.50;4.20;;;;;;;6.46;89.80;99929.10;108455;1278;37056;-75
2023/01/13 06:11:02;;;;;;;8.20;4.20;;;;;;;6.45;89.61;99934.50;108506;1278;37113;-75
2023/01/13 06:13:35;;;;;;;7.00;4.60;;;;;;;6.47;89.95;99934.96;108431;1270;37285;-76
2023/01/13 06:16:08;;;;;;;7.10;4.60;;;;;;;6.51;90.08;99937.81;108440;1261;36883;-76
2023/01/13 06:18:43;;;;;;;9.40;5.30;;;;;;;6.51;90.02;99939.89;108585;1265;36984;-76
2023/01/13 06:21:17;;;;;;;7.70;4.40;;;;;;;6.50;89.98;99940.59;108563;1253;174860;-75
2023/01/13 06:23:51;;;;;;;9.10;4.90;;;;;;;6.51;90.02;99941.29;108612;1259;38553;-74
2023/01/13 06:26:23;;;;;;;7.20;4.50;;;;;;;6.52;90.19;99940.54;108626;1257;36183;-75
2023/01/13 06:28:53;;;;;;;8.60;5.50;;;;;;;6.52;90.21;99939.85;108655;1259;36646;-75
2023/01/13 06:31:25;;;;;;;8.90;5.20;;;;;;;6.52;90.30;99937.08;108606;1260;37386;-75
2023/01/13 06:34:03;;;;;;;6.70;5.00;;;;;;;6.50;90.16;99935.73;108565;1277;172751;-77
2023/01/13 06:36:37;;;;;;;8.00;4.70;;;;;;;6.48;90.26;99931.13;108592;1254;37539;-76
2023/01/13 06:39:10;;;;;;;7.80;4.50;;;;;;;6.47;90.32;99935.66;108615;1273;36160;-75
2023/01/13 06:44:31;;;;;;;7.20;4.60;;;;;;;6.49;90.40;99937.69;108605;1277;37071;-75
2023/01/13 06:47:03;;;;;;;11.40;4.70;;;;;;;6.49;90.50;99943.93;108456;1262;37235;-75
2023/01/13 06:49:35;;;;;;;9.40;5.10;;;;;;;6.49;90.38;99942.55;108629;1277;37282;-75
2023/01/13 06:52:07;;;;;;;7.00;3.90;;;;;;;6.51;90.42;99943.70;108603;1253;37205;-75
2023/01/13 06:54:40;;;;;;;8.50;4.40;;;;;;;6.52;90.43;99945.23;108616;1260;38384;-75
2023/01/13 06:57:11;;;;;;;8.20;4.20;;;;;;;6.52;90.36;99945.57;108573;1260;38521;-75
2023/01/13 06:59:47;;;;;;;8.70;4.20;;;;;;;6.53;90.31;99941.71;108658;1277;36975;-75
2023/01/13 07:02:18;;;;;;;8.40;4.40;;;;;;;6.53;90.56;99945.89;108627;1253;36941;-75
2023/01/13 07:04:50;;;;;;;9.30;4.60;;;;;;;6.54;90.46;99947.07;108599;1259;37511;-76
2023/01/13 07:07:22;;;;;;;7.80;3.70;;;;;;;6.52;90.32;99944.36;108635;1277;37336;-77
2023/01/13 07:09:53;;;;;;;6.90;3.90;;;;;;;6.52;90.34;99946.45;108675;1259;37509;-76
2023/01/13 07:12:27;;;;;;;7.50;3.90;;;;;;;6.54;90.36;99941.70;108457;1268;37854;-76
2023/01/13 07:15:19;;;;;;;7.20;4.30;;;;;;;6.56;90.52;99941.98;108639;1260;37125;-75
2023/01/13 07:17:52;;;;;;;6.60;3.80;;;;;;;6.57;90.49;99944.56;108476;1262;38320;-75
2023/01/13 07:20:23;;;;;;;5.80;4.00;;;;;;;6.57;90.46;99942.31;108606;1253;38478;-76
2023/01/13 07:22:56;;;;;;;9.50;4.30;;;;;;;6.58;90.53;99940.36;108583;1253;36962;-76
2023/01/13 07:25:27;;;;;;;6.00;3.90;;;;;;;6.59;90.23;99941.57;108654;1277;39424;-75
2023/01/13 07:28:03;;;;;;;8.30;4.20;;;;;;;6.58;90.25;99938.98;108594;1263;37342;-74
2023/01/13 07:30:34;;;;;;;8.20;4.00;;;;;;;6.55;90.32;99939.95;108638;1277;36845;-75
2023/01/13 07:33:05;;;;;;;7.70;3.60;;;;;;;6.54;90.42;99941.52;108577;1254;37553;-75
2023/01/13 07:35:37;;;;;;;6.10;3.40;;;;;;;6.55;90.49;99945.65;108488;1268;37170;-77
2023/01/13 07:38:10;;;;;;;6.80;4.00;;;;;;;6.57;90.37;99943.35;108588;1267;37757;-77
2023/01/13 07:40:42;;;;;;;8.20;4.20;;;;;;;6.58;90.60;99946.41;108376;1264;305765;-75
2023/01/13 07:43:35;;;;;;;7.10;4.50;;;;;;;6.60;90.56;99945.52;108480;1277;174864;-76
2023/01/13 07:46:09;;;;;;;6.00;3.80;;;;;;;6.63;90.61;99944.55;108640;1277;36957;-75
2023/01/13 07:48:49;;;;;;;8.10;4.00;;;;;;;6.65;90.81;99943.46;108605;1259;37078;-76
2023/01/13 07:51:23;;;;;;;6.70;4.00;;;;;;;6.69;90.72;99944.91;108475;1277;37056;-75
2023/01/13 07:53:54;;;;;;;6.40;4.40;;;;;;;6.71;90.60;99945.73;108627;1253;37285;-76
2023/01/13 07:56:25;;;;;;;11.80;4.60;;;;;;;6.74;90.75;99945.80;108539;1260;37073;-76
2023/01/13 07:58:57;;;;;;;8.40;4.90;;;;;;;6.75;90.72;99948.20;108549;1277;37127;-76
2023/01/13 08:01:30;;;;;;;9.70;4.60;;;;;;;6.75;90.72;99946.64;108601;1259;38283;-76
2023/01/13 08:04:04;;;;;;;10.90;5.00;;;;;;;6.74;90.58;99945.44;108518;1262;37489;-75
2023/01/13 08:06:39;;;;;;;7.60;4.30;;;;;;;6.76;90.56;99946.80;108446;1270;36381;-75
2023/01/13 08:09:11;;;;;;;7.60;4.50;;;;;;;6.78;90.71;99947.93;108503;1267;37631;-75
2023/01/13 08:11:42;;;;;;;6.70;4.40;;;;;;;6.80;90.68;99949.63;108502;1258;37038;-75
2023/01/13 08:14:14;;;;;;;7.90;4.50;;;;;;;6.82;90.71;99948.71;108571;1259;36953;-76
2023/01/13 08:16:45;;;;;;;6.60;4.00;;;;;;;6.85;90.73;99944.80;108577;1277;37747;-77
2023/01/13 08:19:17;;;;;;;8.30;4.20;;;;;;;6.86;90.83;99949.09;108447;1263;36066;-74
2023/01/13 08:21:53;;;;;;;7.60;4.00;;;;;;;6.89;90.63;99948.48;108439;1257;36955;-74
2023/01/13 08:24:41;;;;;;;10.00;4.30;;;;;;;6.95;90.86;99950.92;108529;1257;37418;-74
2023/01/13 08:27:15;;;;;;;8.70;4.90;;;;;;;6.99;90.78;99950.95;108523;1269;37459;-74
2023/01/13 08:30:03;;;;;;;6.00;4.50;;;;;;;7.01;90.88;99953.15;108534;1268;37144;-72
2023/01/13 08:32:43;;;;;;;6.80;4.10;;;;;;;7.01;90.72;99952.13;108538;1274;37005;-75
2023/01/13 08:35:23;;;;;;;8.20;4.40;;;;;;;7.01;90.76;99949.88;108622;1267;37255;-73
2023/01/13 08:38:01;;;;;;;7.80;3.90;;;;;;;7.04;90.81;99953.95;108417;1257;37100;-76
2023/01/13 08:40:36;;;;;;;8.00;4.50;;;;;;;7.10;90.84;99955.13;108503;1261;37243;-75
2023/01/13 08:43:08;;;;;;;7.80;4.40;;;;;;;7.13;90.73;99959.90;108488;1260;36110;-75
2023/01/13 08:45:47;;;;;;;8.70;4.30;;;;;;;7.13;90.74;99955.91;108523;1271;37267;-76
2023/01/13 08:48:19;;;;;;;9.70;4.40;;;;;;;7.14;90.71;99958.64;108672;1277;37293;-76
2023/01/13 08:50:52;;;;;;;7.60;4.00;;;;;;;7.14;90.64;99965.09;108608;1264;36975;-76
2023/01/13 08:53:30;;;;;;;6.40;4.10;;;;;;;7.14;90.75;99964.73;108565;1277;36197;-75
2023/01/13 08:56:01;;;;;;;7.20;4.60;;;;;;;7.20;90.91;99963.85;108649;1264;37021;-76
2023/01/13 08:58:35;;;;;;;8.40;4.90;;;;;;;7.27;91.02;99963.81;108587;1277;36953;-76
2023/01/13 09:01:08;;;;;;;6.70;4.20;;;;;;;7.30;90.84;99965.46;108644;1262;37580;-77
2023/01/13 09:03:40;;;;;;;8.70;4.30;;;;;;;7.30;90.61;99965.98;108444;1267;36997;-75
2023/01/13 09:06:13;;;;;;;8.80;4.40;;;;;;;7.31;90.54;99970.45;108655;1258;37211;-76
2023/01/13 09:08:52;;;;;;;6.50;4.30;;;;;;;7.32;90.34;99969.21;108605;1267;37299;-74
2023/01/13 09:14:30;;;;;;;5.80;4.10;;;;;;;7.40;90.75;99967.41;108662;1258;37077;-76
2023/01/13 09:17:03;;;;;;;5.50;3.90;;;;;;;7.43;90.70;99967.11;108561;1260;37087;-76
2023/01/13 09:19:34;;;;;;;5.60;3.60;;;;;;;7.44;90.44;99961.38;108605;1260;37171;-75
2023/01/13 09:22:05;;;;;;;6.60;3.80;;;;;;;7.46;90.16;99959.56;108557;1259;36950;-75
2023/01/13 09:24:40;;;;;;;7.00;4.50;;;;;;;7.45;90.00;99952.50;108395;1262;37800;-75
2023/01/13 09:27:14;;;;;;;6.40;3.80;;;;;;;7.47;90.01;99950.85;108537;1259;37165;-75
2023/01/13 09:29:49;;;;;;;5.50;3.60;;;;;;;7.49;90.09;99948.54;108602;1265;37547;-76
2023/01/13 09:32:22;;;;;;;6.50;3.50;;;;;;;7.53;90.08;99951.02;108606;1261;38325;-77
2023/01/13 09:34:59;;;;;;;6.50;3.90;;;;;;;7.56;89.86;99948.51;108405;1270;37791;-75
2023/01/13 09:37:39;;;;;;;5.90;3.80;;;;;;;7.57;89.67;99948.10;108467;1260;174806;-74
2023/01/13 09:40:21;;;;;;;6.00;3.80;;;;;;;7.59;89.63;99946.84;108664;1268;37033;-75
2023/01/13 09:45:51;;;;;;;8.50;4.50;;;;;;;7.62;89.47;99943.94;108473;1268;37063;-75
2023/01/13 09:48:24;;;;;;;6.00;4.00;;;;;;;7.63;89.18;99936.98;108623;1277;37105;-74
2023/01/13 09:51:05;;;;;;;6.10;4.00;;;;;;;7.64;88.99;99935.73;108619;1255;37259;-75
2023/01/13 09:53:39;;;;;;;6.40;3.80;;;;;;;7.66;88.97;99937.90;108578;1276;37104;-75
2023/01/13 09:56:11;;;;;;;7.50;4.30;;;;;;;7.69;88.77;99939.74;108633;1260;38277;-76
2023/01/13 09:58:44;;;;;;;7.30;4.20;;;;;;;7.70;88.70;99939.54;108488;1259;174797;-75
2023/01/13 10:01:21;;;;;;;6.60;3.90;;;;;;;7.70;88.57;99934.13;108484;1273;37983;-73
2023/01/13 10:03:54;;;;;;;7.80;3.80;;;;;;;7.70;87.91;99934.64;108527;1277;37157;-73
2023/01/13 10:06:32;;;;;;;5.80;3.70;;;;;;;7.70;88.29;99931.17;108572;1269;38701;-74
2023/01/13 10:09:04;;;;;;;6.60;3.80;;;;;;;7.75;88.47;99928.05;108665;1266;36624;-74
2023/01/13 10:14:31;;;;;;;7.90;5.00;;;;;;;7.83;87.94;99925.73;108649;1277;37067;-75
2023/01/13 10:17:07;;;;;;;5.70;4.00;;;;;;;7.86;87.80;99921.98;108552;1267;36939;-75
2023/01/13 10:19:45;;;;;;;5.90;4.30;;;;;;;7.90;87.78;99921.50;108618;1277;36719;-74
2023/01/13 10:22:27;;;;;;;7.40;4.30;;;;;;;7.94;87.46;99923.29;108583;1277;37203;-74
2023/01/13 10:25:30;;;;;;;8.30;4.50;;;;;;;7.97;86.99;99918.48;108599;1260;36235;-74
2023/01/13 10:28:10;;;;;;;6.10;4.10;;;;;;;7.98;87.05;99919.30;108449;1274;37371;-75
2023/01/13 10:30:43;;;;;;;8.70;4.50;;;;;;;7.99;86.93;99913.69;108459;1267;37283;-74
2023/01/13 10:33:27;;;;;;;6.80;4.20;;;;;;;8.06;87.09;99913.30;108460;1277;37066;-75
2023/01/13 10:36:03;;;;;;;6.90;4.60;;;;;;;8.12;86.84;99910.30;108454;1277;37513;-75
2023/01/13 10:38:40;;;;;;;7.00;4.80;;;;;;;8.14;86.61;99905.89;108609;1267;37628;-75
2023/01/13 10:41:22;;;;;;;6.90;4.50;;;;;;;8.18;86.68;99904.88;108487;1261;36957;-75
2023/01/13 10:44:05;;;;;;;5.80;3.90;;;;;;;8.22;86.59;99905.23;108468;1277;37193;-75
2023/01/13 10:46:51;;;;;;;5.70;4.50;;;;;;;8.29;86.40;99905.88;108616;1277;36775;-75
2023/01/13 10:49:35;;;;;;;7.80;4.60;;;;;;;8.31;85.53;99901.81;108655;1258;38625;-76
2023/01/13 10:52:30;;;;;;;7.90;4.50;;;;;;;8.32;85.36;99901.61;108598;1276;38301;-75
2023/01/13 10:55:01;;;;;;;7.30;4.40;;;;;;;8.32;85.26;99901.77;108485;1269;38744;-74
2023/01/13 10:57:36;;;;;;;7.40;3.90;;;;;;;8.35;85.33;99902.54;108452;1270;36863;-74
2023/01/13 11:00:27;;;;;;;6.70;3.80;;;;;;;8.40;84.89;99901.84;108530;1268;37148;-72
2023/01/13 11:03:18;;;;;;;6.10;4.00;;;;;;;8.43;84.36;99896.36;108485;1262;37004;-74
2023/01/13 11:05:54;;;;;;;7.30;4.30;;;;;;;8.50;84.81;99893.66;108604;1277;36583;-75
2023/01/13 11:08:27;;;;;;;7.80;4.40;;;;;;;8.58;84.67;99885.38;108594;1277;37070;-75
2023/01/13 11:11:01;;;;;;;7.20;3.80;;;;;;;8.63;84.48;99881.20;108629;1266;37408;-75
2023/01/13 11:14:31;;;;;;;6.80;3.70;;;;;;;8.68;83.93;99884.83;108555;1253;37355;-74
2023/01/13 11:16:42;;;;;;;6.40;4.10;;;;;;;8.73;83.78;99885.48;108589;1258;37447;-75
2023/01/13 11:19:18;;;;;;;6.60;4.20;;;;;;;8.77;82.96;99884.48;108643;1258;38360;-76
2023/01/13 11:21:51;;;;;;;6.80;4.10;;;;;;;8.76;83.11;99884.14;108577;1254;37083;-76
2023/01/13 11:24:34;;;;;;;6.80;4.40;;;;;;;8.80;82.98;99885.91;108597;1260;37395;-74
2023/01/13 11:27:14;;;;;;;6.90;3.90;;;;;;;8.80;82.51;99889.58;108705;1270;36957;-74
2023/01/13 11:29:56;;;;;;;8.60;4.30;;;;;;;8.81;82.37;99886.05;108669;1277;37556;-74
2023/01/13 11:32:27;;;;;;;7.50;4.30;;;;;;;8.82;82.04;99882.39;108648;1259;36135;-74
2023/01/13 11:35:02;;;;;;;6.60;4.10;;;;;;;8.82;81.86;99880.27;108622;1259;38318;-76
2023/01/13 11:37:37;;;;;;;6.40;4.10;;;;;;;8.82;81.99;99879.24;108586;1258;37537;-76
2023/01/13 11:40:16;;;;;;;8.70;5.10;;;;;;;8.86;81.79;99881.34;108479;1261;37145;-74
2023/01/13 11:42:49;;;;;;;;;;;;;;;8.87;81.69;99876.45;108588;1257;37205;-75
2023/01/13 11:45:23;;;;;;;7.60;4.40;;;;;;;8.85;81.35;99875.27;108587;1277;36009;-74
2023/01/13 11:47:57;;;;;;;6.70;4.50;;;;;;;8.89;81.32;99872.73;108568;1258;37064;-75
2023/01/13 11:50:33;;;;;;;6.90;4.30;;;;;;;8.90;80.92;99871.10;108573;1277;37427;-75
2023/01/13 11:53:23;;;;;;;8.00;4.60;;;;;;;8.91;81.11;99865.30;108603;1267;37565;-75
2023/01/13 11:56:02;;;;;;;7.10;4.90;;;;;;;8.91;80.84;99863.74;108648;1277;38588;-75
2023/01/13 11:59:10;;;;;;;6.50;4.20;;;;;;;8.87;80.36;99865.30;108417;1263;37113;-77
2023/01/13 12:02:15;;;;;;;7.80;4.40;;;;;;;8.84;80.51;99863.36;108549;1260;39370;-76
2023/01/13 12:05:03;;;;;;;8.40;4.50;;;;;;;8.84;80.68;99864.05;108542;1275;37910;-74
2023/01/13 12:07:42;;;;;;;7.40;4.30;;;;;;;8.85;80.92;99863.98;108639;1267;37282;-75
2023/01/13 12:10:24;;;;;;;8.10;4.50;;;;;;;8.88;80.88;99858.48;108492;1270;39109;-76
2023/01/13 12:13:01;;;;;;;7.50;4.20;;;;;;;8.87;80.39;99856.25;108561;1267;39129;-75
2023/01/13 12:16:02;;;;;;;6.00;4.30;;;;;;;8.85;79.62;99858.44;108492;1257;172596;-74
2023/01/13 12:19:09;;;;;;;7.00;4.00;;;;;;;8.83;80.33;99854.85;108550;1267;37542;-76
2023/01/13 12:22:08;;;;;;;5.60;4.50;;;;;;;8.87;80.53;99857.14;108422;1261;36142;-73
2023/01/13 12:24:45;;;;;;;7.50;4.20;;;;;;;8.91;80.18;99861.13;108467;1260;37474;-75
2023/01/13 12:27:33;;;;;;;5.90;4.40;;;;;;;8.90;79.75;99862.38;108492;1268;37102;-75
2023/01/13 12:30:20;;;;;;;6.20;4.20;;;;;;;8.88;79.61;99863.55;108497;1260;36479;-76
2023/01/13 12:32:51;;;;;;;6.30;4.20;;;;;;;8.84;79.74;99862.97;108487;1278;37119;-76
2023/01/13 12:35:34;;;;;;;6.20;4.10;;;;;;;8.84;79.83;99857.95;108576;1261;37226;-75
2023/01/13 12:38:11;;;;;;;6.20;4.10;;;;;;;8.85;79.64;99860.36;108609;1260;36434;-75
2023/01/13 12:40:53;;;;;;;8.00;4.30;;;;;;;8.86;79.79;99855.08;108592;1259;37297;-75
2023/01/13 12:46:45;;;;;;;7.00;4.30;;;;;;;8.87;79.41;99858.68;108487;1261;37218;-75
2023/01/13 12:49:28;;;;;;;6.90;3.70;;;;;;;8.91;79.49;99857.64;108580;1268;37190;-75
2023/01/13 12:52:18;;;;;;;7.90;4.30;;;;;;;8.98;79.59;99854.08;108602;1277;36968;-75
2023/01/13 12:55:21;;;;;;;7.30;3.60;;;;;;;9.01;79.05;99851.54;108474;1277;174418;-75